createdAt,value
2018-07-09T00:31:30.669Z,93.10
2018-07-09T00:34:41.471Z,92.50
2018-07-09T00:37:25.885Z,92.30
2018-07-09T01:47:55.982Z,92.20
2018-07-09T01:50:27.823Z,91.60
2018-07-09T01:52:57.213Z,91.70
2018-07-09T01:55:26.012Z,91.70
2018-07-09T01:57:54.817Z,92.20
2018-07-09T02:00:24.749Z,92.10
2018-07-09T02:02:53.416Z,92.50
2018-07-09T02:05:21.972Z,92.50
2018-07-09T02:07:51.492Z,91.50
2018-07-09T02:10:22.417Z,91.70
2018-07-09T02:12:51.089Z,91.90
2018-07-09T02:15:19.841Z,91.90
2018-07-09T02:17:54.073Z,90.80
2018-07-09T02:20:22.807Z,91.40
2018-07-09T02:22:51.373Z,91.30
2018-07-09T02:25:20.048Z,91.50
2018-07-09T02:27:48.807Z,90.90
2018-07-09T02:30:17.447Z,90.50
2018-07-09T02:32:46.127Z,90.00
2018-07-09T02:35:14.783Z,90.50
2018-07-09T02:37:44.286Z,90.80
2018-07-09T02:40:12.979Z,91.30
2018-07-09T02:42:41.676Z,91.20
2018-07-09T02:45:10.196Z,91.10
2018-07-09T02:47:38.899Z,90.60
2018-07-09T02:50:08.295Z,91.30
2018-07-09T02:52:36.958Z,91.80
2018-07-09T02:55:05.799Z,91.80
2018-07-09T02:57:34.440Z,91.50
2018-07-09T03:00:03.103Z,91.50
2018-07-09T03:02:31.661Z,91.20
2018-07-09T03:05:00.328Z,91.80
2018-07-09T03:07:29.078Z,92.30
2018-07-09T03:09:57.594Z,92.60
2018-07-09T03:12:26.954Z,92.60
2018-07-09T03:14:55.542Z,92.70
2018-07-09T03:17:24.177Z,92.50
2018-07-09T03:19:53.114Z,92.50
2018-07-09T03:22:22.565Z,92.80
2018-07-09T03:24:51.182Z,92.60
2018-07-09T03:27:19.913Z,92.00
2018-07-09T03:29:48.458Z,91.40
2018-07-09T03:32:17.228Z,91.40
2018-07-09T03:34:45.865Z,92.20
2018-07-09T03:37:14.515Z,91.80
2018-07-09T03:39:43.104Z,90.80
2018-07-09T03:42:11.713Z,90.40
2018-07-09T03:44:40.459Z,90.60
2018-07-09T03:47:09.018Z,90.80
2018-07-09T03:49:44.698Z,90.60
2018-07-09T03:52:13.468Z,90.10
2018-07-09T03:54:42.025Z,90.50
2018-07-09T03:57:10.590Z,91.30
2018-07-09T03:59:39.234Z,91.60
2018-07-09T04:02:07.804Z,91.50
2018-07-09T04:04:36.323Z,91.00
2018-07-09T04:07:04.512Z,91.10
2018-07-09T04:09:32.695Z,91.20
2018-07-09T04:12:00.846Z,90.80
2018-07-09T04:14:32.633Z,90.80
2018-07-09T04:19:29.629Z,91.20
2018-07-09T04:21:59.297Z,91.60
2018-07-09T04:24:27.571Z,91.30
2018-07-09T04:26:55.782Z,91.30
2018-07-09T04:29:24.372Z,91.70
2018-07-09T04:31:52.702Z,91.70
2018-07-09T04:34:20.822Z,92.80
2018-07-09T04:36:49.088Z,90.80
2018-07-09T04:39:17.410Z,90.90
2018-07-09T04:41:46.541Z,90.30
2018-07-09T04:44:14.844Z,90.00
2018-07-09T04:46:43.075Z,90.00
2018-07-09T04:49:11.338Z,90.30
2018-07-09T04:51:39.604Z,89.70
2018-07-09T04:54:08.100Z,88.40
2018-07-09T04:56:36.735Z,87.20
2018-07-09T04:59:05.282Z,87.70
2018-07-09T05:01:33.672Z,88.10
2018-07-09T05:04:01.987Z,87.30
2018-07-09T05:06:30.376Z,86.70
2018-07-09T05:08:58.624Z,86.60
2018-07-09T05:11:26.981Z,88.00
2018-07-09T05:13:55.316Z,87.20
2018-07-09T05:16:23.564Z,86.20
2018-07-09T05:18:51.830Z,88.20
2018-07-09T05:21:20.178Z,89.20
2018-07-09T05:23:48.576Z,88.60
2018-07-09T05:26:16.940Z,88.30
2018-07-09T05:28:45.917Z,89.60
2018-07-09T05:31:21.549Z,88.20
2018-07-09T05:33:50.044Z,87.80
2018-07-09T05:36:18.454Z,89.00
2018-07-09T05:38:46.886Z,87.00
2018-07-09T05:41:15.163Z,88.60
2018-07-09T05:43:44.081Z,88.60
2018-07-09T05:46:12.462Z,85.90
2018-07-09T05:48:40.681Z,84.40
2018-07-09T05:51:09.172Z,83.10
2018-07-09T05:53:37.605Z,85.20
2018-07-09T05:56:06.077Z,86.20
2018-07-09T05:58:34.524Z,86.10
2018-07-09T06:01:02.950Z,87.80
2018-07-09T06:03:31.367Z,86.20
2018-07-09T06:05:59.689Z,87.60
2018-07-09T06:08:28.025Z,85.10
2018-07-09T06:10:56.295Z,85.30
2018-07-09T06:13:24.500Z,82.50
2018-07-09T06:15:52.715Z,82.20
2018-07-09T06:18:20.953Z,83.80
2018-07-09T06:20:49.149Z,83.80
2018-07-09T06:23:17.393Z,82.10
2018-07-09T06:25:45.624Z,83.00
2018-07-09T06:28:13.866Z,80.60
2018-07-09T06:30:42.095Z,79.40
2018-07-09T06:33:10.335Z,80.40
2018-07-09T06:35:38.519Z,81.60
2018-07-09T06:38:06.784Z,80.40
2018-07-09T06:40:35.019Z,78.60
2018-07-09T06:43:03.324Z,79.00
2018-07-09T06:45:31.635Z,76.50
2018-07-09T06:47:59.858Z,72.30
2018-07-09T06:50:28.098Z,71.00
2018-07-09T06:52:56.362Z,64.70
2018-07-09T06:55:24.571Z,59.50
2018-07-09T06:57:52.844Z,61.10
2018-07-09T07:00:21.086Z,59.10
2018-07-09T07:02:49.296Z,59.50
2018-07-09T07:05:17.497Z,59.90
2018-07-09T07:07:45.708Z,59.30
2018-07-09T07:10:13.926Z,58.10
2018-07-09T07:12:42.158Z,57.30
2018-07-09T07:15:10.381Z,58.70
2018-07-09T07:17:38.623Z,58.40
2018-07-09T07:20:06.839Z,58.70
2018-07-09T07:22:35.082Z,56.90
2018-07-09T07:25:03.318Z,56.00
2018-07-09T07:27:31.591Z,55.70
2018-07-09T07:29:59.825Z,57.10
2018-07-09T07:32:28.066Z,56.30
2018-07-09T07:34:56.433Z,56.20
2018-07-09T07:37:24.718Z,58.10
2018-07-09T07:39:52.936Z,57.10
2018-07-09T07:42:21.193Z,56.90
2018-07-09T07:44:49.553Z,58.20
2018-07-09T07:47:17.790Z,57.90
2018-07-09T07:49:46.036Z,56.70
2018-07-09T07:54:42.297Z,57.70
2018-07-09T07:57:11.222Z,58.30
2018-07-09T07:59:39.457Z,57.50
2018-07-09T08:02:07.742Z,56.00
2018-07-09T08:04:35.984Z,53.60
2018-07-09T08:07:04.239Z,54.70
2018-07-09T08:09:32.587Z,53.40
2018-07-09T08:12:59.668Z,53.00
2018-07-09T08:14:29.093Z,50.20
2018-07-09T08:16:57.378Z,49.20
2018-07-09T08:19:25.680Z,48.80
2018-07-09T08:21:54.235Z,48.40
2018-07-09T08:24:22.572Z,46.50
2018-07-09T08:26:50.947Z,44.70
2018-07-09T08:29:19.249Z,45.00
2018-07-09T08:31:47.542Z,44.70
2018-07-09T08:34:15.880Z,43.50
2018-07-09T08:36:44.124Z,43.60
2018-07-09T08:39:12.397Z,42.70
2018-07-09T08:41:40.713Z,43.90
2018-07-09T08:44:09.041Z,43.60
2018-07-09T08:49:11.969Z,43.20
2018-07-09T08:51:40.405Z,43.30
2018-07-09T08:54:08.906Z,42.50
2018-07-09T08:56:37.340Z,42.80
2018-07-09T08:59:05.706Z,42.20
2018-07-09T09:01:34.069Z,41.00
2018-07-09T09:04:02.483Z,40.10
2018-07-09T09:06:30.785Z,39.80
2018-07-09T09:08:59.085Z,41.40
2018-07-09T09:11:27.400Z,40.20
2018-07-09T09:13:55.768Z,41.70
2018-07-09T09:16:24.114Z,40.10
2018-07-09T09:18:52.840Z,40.50
2018-07-09T09:21:21.114Z,40.70
2018-07-09T09:23:49.439Z,40.30
2018-07-09T09:28:45.760Z,42.60
2018-07-09T09:31:14.021Z,40.80
2018-07-09T09:33:42.317Z,40.30
2018-07-09T09:36:10.609Z,41.80
2018-07-09T09:41:06.982Z,41.00
2018-07-09T09:43:35.347Z,43.10
2018-07-09T09:48:31.609Z,42.70
2018-07-09T09:50:59.928Z,40.50
2018-07-09T09:53:28.240Z,43.30
2018-07-09T09:55:56.569Z,42.60
2018-07-09T09:58:24.841Z,41.00
2018-07-09T10:00:53.137Z,40.40
2018-07-09T10:03:22.066Z,42.20
2018-07-09T10:05:52.867Z,41.90
2018-07-09T10:08:21.809Z,41.90
2018-07-09T10:10:50.141Z,42.60
2018-07-09T10:13:18.428Z,43.20
2018-07-09T10:15:46.724Z,40.00
2018-07-09T10:18:14.996Z,40.90
2018-07-09T10:20:43.266Z,42.30
2018-07-09T10:23:11.713Z,41.20
2018-07-09T10:25:39.842Z,40.60
2018-07-09T10:30:36.192Z,40.40
2018-07-09T10:33:04.454Z,39.60
2018-07-09T10:35:32.765Z,38.20
2018-07-09T10:41:07.421Z,38.70
2018-07-09T10:43:35.751Z,36.30
2018-07-09T10:46:04.034Z,35.00
2018-07-09T10:48:32.367Z,37.00
2018-07-09T10:51:00.645Z,36.00
2018-07-09T10:53:29.109Z,39.20
2018-07-09T10:55:57.506Z,37.90
2018-07-09T10:58:25.923Z,39.50
2018-07-09T11:01:21.742Z,35.70
2018-07-09T11:03:50.149Z,37.40
2018-07-09T11:06:18.718Z,35.60
2018-07-09T11:11:39.576Z,38.60
2018-07-09T11:14:09.256Z,36.50
2018-07-09T11:16:37.843Z,34.50
2018-07-09T11:19:06.114Z,33.60
2018-07-09T11:21:34.398Z,36.40
2018-07-09T11:24:02.603Z,34.80
2018-07-09T11:26:30.811Z,37.60
2018-07-09T11:28:59.324Z,35.80
2018-07-09T11:31:27.725Z,37.40
2018-07-09T11:33:56.784Z,36.70
2018-07-09T11:36:25.289Z,37.60
2018-07-09T11:38:54.009Z,39.00
2018-07-09T11:41:22.370Z,37.00
2018-07-09T11:43:50.697Z,38.90
2018-07-09T11:46:19.139Z,36.70
2018-07-09T11:51:15.462Z,38.60
2018-07-09T11:53:43.699Z,38.00
2018-07-09T11:56:11.981Z,37.30
2018-07-09T11:58:40.984Z,38.40
2018-07-09T12:01:09.559Z,39.20
2018-07-09T12:03:58.854Z,39.10
2018-07-09T12:06:27.488Z,38.20
2018-07-09T12:08:56.060Z,38.60
2018-07-09T12:11:24.718Z,39.40
2018-07-09T12:13:53.456Z,40.30
2018-07-09T12:16:22.107Z,39.00
2018-07-09T12:18:50.629Z,39.60
2018-07-09T12:21:19.261Z,38.60
2018-07-09T12:23:47.692Z,40.20
2018-07-09T12:26:16.189Z,40.20
2018-07-09T12:28:44.772Z,39.30
2018-07-09T12:31:13.236Z,39.20
2018-07-09T12:33:41.751Z,39.70
2018-07-09T12:36:10.261Z,39.40
2018-07-09T12:38:38.835Z,39.80
2018-07-09T12:41:07.492Z,40.20
2018-07-09T12:43:35.994Z,40.90
2018-07-09T12:46:04.437Z,39.80
2018-07-09T12:48:32.997Z,40.90
2018-07-09T12:51:01.766Z,40.40
2018-07-09T12:53:30.362Z,41.50
2018-07-09T12:55:59.013Z,40.50
2018-07-09T12:58:27.578Z,40.40
2018-07-09T13:00:56.380Z,41.00
2018-07-09T13:03:25.155Z,41.50
2018-07-09T13:05:53.805Z,41.10
2018-07-09T13:08:22.513Z,41.10
2018-07-09T13:10:51.030Z,39.40
2018-07-09T13:13:19.537Z,40.40
2018-07-09T13:15:47.995Z,40.60
2018-07-09T13:18:16.721Z,40.50
2018-07-09T13:20:45.485Z,41.10
2018-07-09T13:23:14.119Z,40.20
2018-07-09T13:25:42.804Z,40.30
2018-07-09T13:28:11.508Z,40.20
2018-07-09T13:30:40.034Z,40.80
2018-07-09T13:33:08.701Z,40.90
2018-07-09T13:35:37.340Z,39.90
2018-07-09T13:40:36.241Z,40.50
2018-07-09T13:43:04.780Z,40.30
2018-07-09T13:45:33.485Z,40.20
2018-07-09T13:48:01.845Z,41.10
2018-07-09T13:50:30.434Z,40.10
2018-07-09T13:52:59.107Z,39.50
2018-07-09T13:55:27.907Z,39.60
2018-07-09T13:57:56.565Z,40.20
2018-07-09T14:00:25.270Z,40.90
2018-07-09T14:02:54.074Z,40.30
2018-07-09T14:05:22.901Z,40.40
2018-07-09T14:07:52.023Z,40.90
2018-07-09T14:10:20.655Z,39.70
2018-07-09T14:12:49.251Z,39.60
2018-07-09T14:15:17.917Z,40.00
2018-07-09T14:17:46.654Z,40.60
2018-07-09T14:20:28.093Z,41.50
2018-07-09T14:22:56.724Z,41.10
2018-07-09T14:25:25.485Z,40.80
2018-07-09T14:27:54.361Z,41.00
2018-07-09T14:30:23.010Z,40.60
2018-07-09T14:32:51.868Z,41.40
2018-07-09T14:35:45.158Z,40.50
2018-07-09T14:38:17.179Z,40.70
2018-07-09T14:40:49.598Z,41.60
2018-07-09T14:43:18.765Z,42.10
2018-07-09T14:45:47.226Z,41.70
2018-07-09T14:48:15.442Z,42.10
2018-07-09T14:50:43.636Z,41.90
2018-07-09T14:55:40.156Z,41.80
2018-07-09T14:58:08.384Z,41.20
2018-07-09T15:00:36.550Z,42.40
2018-07-09T15:03:04.737Z,42.20
2018-07-09T15:05:32.914Z,42.10
2018-07-09T15:08:01.094Z,41.80
2018-07-09T15:10:29.285Z,41.70
2018-07-09T15:12:57.479Z,41.60
2018-07-09T15:15:25.673Z,41.50
2018-07-09T15:17:53.868Z,41.60
2018-07-09T15:20:22.059Z,41.90
2018-07-09T15:22:50.246Z,40.70
2018-07-09T15:25:18.423Z,41.70
2018-07-09T15:27:46.611Z,41.20
2018-07-09T15:30:14.799Z,41.60
2018-07-09T15:32:42.977Z,41.10
2018-07-09T15:35:11.159Z,41.60
2018-07-09T15:37:39.334Z,41.40
2018-07-09T15:40:07.706Z,41.30
2018-07-09T15:42:35.984Z,41.30
2018-07-09T15:45:04.132Z,41.50
2018-07-09T15:47:33.482Z,42.30
2018-07-09T15:50:01.672Z,42.80
2018-07-09T15:52:30.547Z,43.60
2018-07-09T15:54:59.672Z,42.40
2018-07-09T15:57:27.856Z,42.50
2018-07-09T16:00:02.281Z,42.30
2018-07-09T16:02:47.502Z,42.10
2018-07-09T16:05:23.249Z,42.50
2018-07-09T16:07:51.677Z,41.20
2018-07-09T16:10:19.994Z,42.30
2018-07-09T16:12:48.242Z,44.40
2018-07-09T16:15:23.013Z,43.00
2018-07-09T16:17:52.301Z,42.70
2018-07-09T16:21:25.088Z,42.60
2018-07-09T16:24:05.629Z,42.30
2018-07-09T16:26:33.906Z,43.20
2018-07-09T16:29:03.431Z,42.30
2018-07-09T16:31:31.861Z,42.80
2018-07-09T16:34:00.149Z,43.30
2018-07-09T16:36:32.400Z,42.50
2018-07-09T16:41:29.104Z,42.10
2018-07-09T16:43:57.394Z,43.20
2018-07-09T16:46:33.378Z,43.00
2018-07-09T16:49:02.075Z,41.60
2018-07-09T16:51:30.681Z,42.70
2018-07-09T16:53:58.906Z,42.60
2018-07-09T16:56:27.179Z,43.00
2018-07-09T16:58:55.389Z,43.60
2018-07-09T17:01:23.738Z,43.10
2018-07-09T17:03:51.933Z,43.70
2018-07-09T17:06:20.139Z,43.60
2018-07-09T17:08:48.327Z,44.00
2018-07-09T17:11:16.564Z,43.50
2018-07-09T17:13:45.042Z,43.80
2018-07-09T17:21:09.188Z,44.60
2018-07-09T17:23:37.400Z,44.60
2018-07-09T17:26:05.916Z,44.00
2018-07-09T17:33:30.058Z,44.60
2018-07-09T17:35:58.270Z,44.70
2018-07-09T17:38:26.528Z,44.90
2018-07-09T17:40:54.850Z,43.50
2018-07-09T17:43:23.504Z,43.80
2018-07-09T17:45:51.699Z,44.50
2018-07-09T17:48:19.899Z,44.80
2018-07-09T17:50:48.143Z,44.80
2018-07-09T17:53:16.341Z,45.60
2018-07-09T17:55:44.599Z,45.90
2018-07-09T17:58:12.839Z,46.20
2018-07-09T18:00:41.049Z,46.60
2018-07-09T18:03:09.341Z,46.70
2018-07-09T18:08:05.519Z,47.10
2018-07-09T18:10:33.851Z,46.30
2018-07-09T18:13:01.977Z,46.70
2018-07-09T18:15:30.628Z,46.20
2018-07-09T18:20:27.176Z,46.80
2018-07-09T18:25:23.475Z,47.60
2018-07-09T18:27:51.651Z,47.50
2018-07-09T18:30:19.868Z,47.50
2018-07-09T18:32:48.118Z,47.80
2018-07-09T18:35:16.429Z,48.10
2018-07-09T18:37:44.688Z,47.80
2018-07-09T18:40:12.940Z,48.20
2018-07-09T18:42:41.259Z,48.40
2018-07-09T18:45:09.754Z,48.00
2018-07-09T18:47:37.967Z,48.20
2018-07-09T18:50:06.639Z,48.90
2018-07-09T18:52:34.952Z,49.30
2018-07-09T18:55:05.256Z,49.40
2018-07-09T18:57:33.582Z,51.20
2018-07-09T19:00:02.057Z,51.10
2018-07-09T19:02:30.327Z,52.20
2018-07-09T19:04:59.669Z,49.20
2018-07-09T19:07:30.194Z,49.20
2018-07-09T19:09:58.549Z,48.20
2018-07-09T19:12:32.844Z,48.40
2018-07-09T19:15:01.157Z,48.90
2018-07-09T19:18:07.047Z,49.70
2018-07-09T19:21:18.816Z,50.10
2018-07-09T19:23:46.064Z,50.30
2018-07-09T19:26:19.451Z,49.10
2018-07-09T19:28:53.454Z,49.40
2018-07-09T19:31:21.748Z,51.00
2018-07-09T19:33:49.052Z,51.60
2018-07-09T19:36:16.903Z,52.50
2018-07-09T19:38:44.233Z,53.70
2018-07-09T19:41:11.561Z,52.90
2018-07-09T19:43:39.312Z,52.60
2018-07-09T19:46:06.601Z,54.90
2018-07-09T19:48:34.011Z,56.90
2018-07-09T19:51:01.316Z,57.40
2018-07-09T19:53:28.888Z,57.90
2018-07-09T19:56:02.380Z,57.90
2018-07-09T19:58:29.614Z,55.90
2018-07-09T20:00:56.828Z,56.00
2018-07-09T20:03:24.078Z,61.10
2018-07-09T20:05:51.295Z,60.90
2018-07-09T20:08:18.548Z,62.50
2018-07-09T20:10:51.108Z,62.10
2018-07-09T20:13:23.631Z,64.80
2018-07-09T20:15:56.280Z,64.60
2018-07-09T20:18:23.531Z,65.40
2018-07-09T20:20:51.062Z,67.40
2018-07-09T20:23:18.273Z,67.70
2018-07-09T20:25:45.525Z,70.40
2018-07-09T20:28:13.667Z,69.20
2018-07-09T20:30:40.891Z,68.00
2018-07-09T20:33:08.152Z,71.00
2018-07-09T20:35:35.379Z,69.30
2018-07-09T20:38:02.613Z,68.90
2018-07-09T20:40:29.840Z,71.20
2018-07-09T20:42:57.061Z,75.00
2018-07-09T20:45:24.288Z,74.00
2018-07-09T20:47:51.572Z,72.30
2018-07-09T20:50:18.816Z,73.20
2018-07-09T20:52:46.076Z,73.80
2018-07-09T20:55:13.297Z,71.90
2018-07-09T20:57:40.511Z,71.40
2018-07-09T21:00:07.786Z,72.10
2018-07-09T21:02:34.991Z,75.40
2018-07-09T21:05:02.206Z,74.40
2018-07-09T21:07:29.684Z,75.80
2018-07-09T21:09:56.908Z,76.00
2018-07-09T21:12:24.128Z,74.60
2018-07-09T21:14:51.375Z,75.70
2018-07-09T21:17:18.653Z,73.50
2018-07-09T21:19:45.905Z,77.30
2018-07-09T21:22:13.119Z,77.20
2018-07-09T21:24:40.364Z,78.00
2018-07-09T21:27:07.589Z,77.40
2018-07-09T21:29:34.886Z,74.70
2018-07-09T21:32:02.180Z,74.80
2018-07-09T21:34:29.459Z,74.60
2018-07-09T21:36:56.684Z,73.70
2018-07-09T21:39:23.980Z,73.60
2018-07-09T21:41:51.188Z,74.20
2018-07-09T21:44:18.445Z,74.40
2018-07-09T21:46:45.656Z,75.20
2018-07-09T21:49:12.900Z,75.50
2018-07-09T21:51:40.134Z,75.00
2018-07-09T21:54:07.360Z,75.60
2018-07-09T21:56:34.687Z,76.20
2018-07-09T21:59:01.824Z,75.80
2018-07-09T22:01:29.064Z,75.20
2018-07-09T22:03:56.282Z,76.00
2018-07-09T22:06:23.496Z,75.30
2018-07-09T22:08:50.729Z,76.00
2018-07-09T22:11:17.992Z,75.50
2018-07-09T22:13:45.273Z,75.80
2018-07-09T22:18:40.251Z,79.00
2018-07-09T22:21:07.515Z,77.80
2018-07-09T22:23:34.732Z,77.00
2018-07-09T22:26:01.980Z,76.50
2018-07-09T22:28:29.214Z,78.00
2018-07-09T22:31:00.138Z,78.40
2018-07-09T22:33:28.556Z,78.10
2018-07-09T22:35:57.050Z,76.60
2018-07-09T22:38:25.294Z,77.00
2018-07-09T22:40:53.757Z,76.30
2018-07-09T22:43:33.268Z,77.60
2018-07-09T22:46:01.503Z,78.50
2018-07-09T22:48:29.795Z,80.30
2018-07-09T22:50:58.176Z,80.20
2018-07-09T22:53:26.541Z,79.20
2018-07-09T22:56:08.475Z,79.20
2018-07-09T22:58:37.779Z,80.60
2018-07-09T23:01:06.336Z,80.20
2018-07-09T23:03:34.614Z,80.70
2018-07-09T23:06:03.127Z,83.30
2018-07-09T23:08:31.569Z,84.80
2018-07-09T23:12:34.408Z,84.60
2018-07-09T23:17:15.588Z,86.30
2018-07-09T23:22:01.973Z,85.80
2018-07-09T23:24:29.202Z,85.60
2018-07-09T23:26:57.284Z,85.60
2018-07-09T23:29:24.515Z,85.90
2018-07-09T23:31:51.745Z,86.90
2018-07-09T23:34:19.366Z,87.30
2018-07-09T23:36:46.693Z,88.50
2018-07-09T23:39:14.172Z,89.30
2018-07-09T23:41:41.457Z,89.30
2018-07-09T23:44:08.734Z,89.60
2018-07-09T23:46:35.967Z,88.60
2018-07-09T23:49:03.234Z,86.90
2018-07-09T23:51:30.476Z,88.00
2018-07-09T23:53:57.701Z,88.00
2018-07-09T23:58:36.277Z,88.10
